KOWB/OWB METAR and TAF weather

Enter ICAO airport designator
Station Type Date Time Source
KOWB METAR 2021/05/14 13:56 UTC NOAA

KOWB 141356Z VRB04KT 10SM CLR 17/04 A3035 RMK AO2 SLP279 T01670044


Station Type Date Time Source
KOWB Decoded METAR 2021/05/14 13:56 UTC NOAA

Owensboro, Owensboro-Daviess County Airport, KY, United States (KOWB) 37-44-24N 087-10-00W
May 14, 2021 - 09:56 AM EDT / 2021.05.14 1356 UTC
Wind: Variable at 5 MPH (4 KT):0
Visibility: 10 mile(s):0
Sky conditions: clear
Temperature: 62.1 F (16.7 C)
Dew Point: 39.9 F (4.4 C)
Relative Humidity: 43%
Pressure (altimeter): 30.35 in. Hg (1027 hPa)
ob: KOWB 141356Z VRB04KT 10SM CLR 17/04 A3035 RMK AO2 SLP279 T01670044
cycle: 14

Station Type Date Time Source
KOWB TAF 2021/05/14 12:22 UTC NOAA

TAF KOWB 141120Z 1412/1512 VRB03KT P6SM FEW080 FEW250
FM141800 11005KT P6SM FEW080 SCT200
FM150000 VRB02KT P6SM SCT200

Example: see airport list